Time;durP1;ratioP1;P1;durP2;ratioP2;P2;SDS_P1;SDS_P2;PMS_P1;PMS_P2;Temp;Humidity;BMP_temperature;BMP_pressure;BME280_temperature;BME280_humidity;BME280_pressure;Samples;Min_cycle;Max_cycle;Signal;HPM_P1;HPM_P2
2022/01/14 00:00:41;;;;;;;11.9;7.5;;;;;;;;;;;;;
2022/01/14 00:03:07;;;;;;;12;6.6;;;;;;;;;;;;;
2022/01/14 00:05:35;;;;;;;10.5;5.8;;;;;;;;;;;;;
2022/01/14 00:08:03;;;;;;;11.1;6.6;;;;;;;;;;;;;
2022/01/14 00:10:32;;;;;;;12;6.1;;;;;;;;;;;;;
2022/01/14 00:13:05;;;;;;;13.5;7.2;;;;;;;;;;;;;
2022/01/14 00:15:26;;;;;;;10.4;6.5;;;;;;;;;;;;;
2022/01/14 00:17:46;;;;;;;10.4;6.8;;;;;;;;;;;;;
2022/01/14 00:20:13;;;;;;;14.3;8.6;;;;;;;;;;;;;
2022/01/14 00:22:39;;;;;;;8.9;4.6;;;;;;;;;;;;;
2022/01/14 00:32:26;;;;;;;9.2;5.9;;;;;;;;;;;;;
2022/01/14 00:34:45;;;;;;;7.7;5.2;;;;;;;;;;;;;
2022/01/14 00:37:10;;;;;;;10.1;6;;;;;;;;;;;;;
2022/01/14 00:39:35;;;;;;;7.5;4.7;;;;;;;;;;;;;
2022/01/14 00:42:02;;;;;;;35.5;17;;;;;;;;;;;;;
2022/01/14 00:44:27;;;;;;;6.4;4.2;;;;;;;;;;;;;
2022/01/14 00:46:52;;;;;;;42.9;22.1;;;;;;;;;;;;;
2022/01/14 00:49:18;;;;;;;6.8;4.7;;;;;;;;;;;;;
2022/01/14 00:51:43;;;;;;;17.2;9.5;;;;;;;;;;;;;
2022/01/14 00:54:09;;;;;;;48.9;20.4;;;;;;;;;;;;;
2022/01/14 00:56:47;;;;;;;9.8;4.9;;;;;;;;;;;;;
2022/01/14 00:59:18;;;;;;;7.6;5.1;;;;;;;;;;;;;
2022/01/14 01:01:25;;;;;;;9;5.5;;;;;;;;;;;;;
2022/01/14 01:03:50;;;;;;;10.4;6;;;;;;;;;;;;;
2022/01/14 01:06:16;;;;;;;10.7;5.8;;;;;;;;;;;;;
2022/01/14 01:08:42;;;;;;;9.3;6.2;;;;;;;;;;;;;
2022/01/14 01:11:10;;;;;;;10.8;6;;;;;;;;;;;;;
2022/01/14 01:13:36;;;;;;;10.1;5.3;;;;;;;;;;;;;
2022/01/14 01:15:57;;;;;;;7.1;4.4;;;;;;;;;;;;;
2022/01/14 01:18:23;;;;;;;7.5;4.6;;;;;;;;;;;;;
2022/01/14 01:20:48;;;;;;;6.9;4.6;;;;;;;;;;;;;
2022/01/14 01:23:13;;;;;;;6.7;4.3;;;;;;;;;;;;;
2022/01/14 01:25:43;;;;;;;7.6;4.3;;;;;;;;;;;;;
2022/01/14 01:28:04;;;;;;;5.8;4;;;;;;;;;;;;;
2022/01/14 01:30:50;;;;;;;8.2;5;;;;;;;;;;;;;
2022/01/14 01:32:54;;;;;;;9.7;4.8;;;;;;;;;;;;;
2022/01/14 01:35:20;;;;;;;6.4;4.3;;;;;;;;;;;;;
2022/01/14 01:37:45;;;;;;;6.4;4.2;;;;;;;;;;;;;
2022/01/14 01:40:11;;;;;;;7.9;4.1;;;;;;;;;;;;;
2022/01/14 01:42:36;;;;;;;6.2;4.3;;;;;;;;;;;;;
2022/01/14 01:45:06;;;;;;;7.9;4.9;;;;;;;;;;;;;
2022/01/14 01:47:27;;;;;;;8.3;4.4;;;;;;;;;;;;;
2022/01/14 01:49:55;;;;;;;8.3;5.1;;;;;;;;;;;;;
2022/01/14 01:52:19;;;;;;;7.1;4.6;;;;;;;;;;;;;
2022/01/14 01:54:44;;;;;;;6.4;4;;;;;;;;;;;;;
2022/01/14 01:57:10;;;;;;;6.2;4.2;;;;;;;;;;;;;
2022/01/14 01:59:35;;;;;;;8.4;4.4;;;;;;;;;;;;;
2022/01/14 02:02:00;;;;;;;6.2;3.7;;;;;;;;;;;;;
2022/01/14 02:04:26;;;;;;;6.1;3.8;;;;;;;;;;;;;
2022/01/14 02:06:51;;;;;;;5.7;3.9;;;;;;;;;;;;;
2022/01/14 02:09:17;;;;;;;6.5;3.7;;;;;;;;;;;;;
2022/01/14 02:11:42;;;;;;;5.3;3.3;;;;;;;;;;;;;
2022/01/14 02:14:25;;;;;;;7.2;3.2;;;;;;;;;;;;;
2022/01/14 02:16:47;;;;;;;5.1;3.5;;;;;;;;;;;;;
2022/01/14 02:19:16;;;;;;;4.8;3.2;;;;;;;;;;;;;
2022/01/14 02:23:53;;;;;;;5.3;3;;;;;;;;;;;;;
2022/01/14 02:26:14;;;;;;;5.4;3.5;;;;;;;;;;;;;
2022/01/14 02:28:39;;;;;;;5.8;3.8;;;;;;;;;;;;;
2022/01/14 02:31:05;;;;;;;5.3;3.5;;;;;;;;;;;;;
2022/01/14 02:33:30;;;;;;;5.2;3.2;;;;;;;;;;;;;
2022/01/14 02:35:56;;;;;;;6.6;3.6;;;;;;;;;;;;;
2022/01/14 02:38:21;;;;;;;6.2;3.4;;;;;;;;;;;;;
2022/01/14 02:40:45;;;;;;;5.4;3.1;;;;;;;;;;;;;
2022/01/14 02:43:14;;;;;;;5.4;3.2;;;;;;;;;;;;;
2022/01/14 02:45:37;;;;;;;5.3;3.1;;;;;;;;;;;;;
2022/01/14 02:48:03;;;;;;;5;3.6;;;;;;;;;;;;;
2022/01/14 02:50:36;;;;;;;4.2;2.7;;;;;;;;;;;;;
2022/01/14 02:53:01;;;;;;;4.7;2.5;;;;;;;;;;;;;
2022/01/14 02:55:20;;;;;;;5;3;;;;;;;;;;;;;
2022/01/14 02:57:43;;;;;;;3.8;2.7;;;;;;;;;;;;;
2022/01/14 03:00:12;;;;;;;4.1;2.8;;;;;;;;;;;;;
2022/01/14 03:02:39;;;;;;;4.2;2.9;;;;;;;;;;;;;
2022/01/14 03:05:04;;;;;;;3.7;2.6;;;;;;;;;;;;;
2022/01/14 03:07:30;;;;;;;5;2.7;;;;;;;;;;;;;
2022/01/14 03:09:55;;;;;;;5.4;2.8;;;;;;;;;;;;;
2022/01/14 03:12:21;;;;;;;4.1;2.5;;;;;;;;;;;;;
2022/01/14 03:14:46;;;;;;;3.6;2.4;;;;;;;;;;;;;
2022/01/14 03:17:13;;;;;;;6.1;3;;;;;;;;;;;;;
2022/01/14 03:19:38;;;;;;;3.3;2.5;;;;;;;;;;;;;
2022/01/14 03:22:18;;;;;;;4.6;2.8;;;;;;;;;;;;;
2022/01/14 03:25:47;;;;;;;4.4;2.8;;;;;;;;;;;;;
2022/01/14 03:26:54;;;;;;;3.4;2.3;;;;;;;;;;;;;
2022/01/14 03:29:20;;;;;;;3.6;2.6;;;;;;;;;;;;;
2022/01/14 03:31:45;;;;;;;5.2;3.5;;;;;;;;;;;;;
2022/01/14 03:34:11;;;;;;;3.8;2.8;;;;;;;;;;;;;
2022/01/14 03:36:36;;;;;;;4.5;2.8;;;;;;;;;;;;;
2022/01/14 03:39:01;;;;;;;4;2.4;;;;;;;;;;;;;
2022/01/14 03:41:26;;;;;;;5.5;2.9;;;;;;;;;;;;;
2022/01/14 03:43:53;;;;;;;5.9;3.4;;;;;;;;;;;;;
2022/01/14 03:46:18;;;;;;;4.6;3.2;;;;;;;;;;;;;
2022/01/14 03:48:44;;;;;;;4.6;2.7;;;;;;;;;;;;;
2022/01/14 03:51:09;;;;;;;4;2.7;;;;;;;;;;;;;
2022/01/14 03:53:35;;;;;;;6;3.2;;;;;;;;;;;;;
2022/01/14 03:56:00;;;;;;;8;3.7;;;;;;;;;;;;;
2022/01/14 03:58:25;;;;;;;8.1;3.7;;;;;;;;;;;;;
2022/01/14 04:02:38;;;;;;;15;6.6;;;;;;;-2.43;89.86426;954.1858;;;;
2022/01/14 04:05:14;;;;;;;18.1;7.7;;;;;;;-2.42;89.54492;954.2231;;;;
2022/01/14 04:07:41;;;;;;;27.1;11.2;;;;;;;-2.49;89.81934;954.2249;;;;
2022/01/14 04:10:05;;;;;;;20.2;9.3;;;;;;;-2.57;90.10059;954.1292;;;;
2022/01/14 04:12:45;;;;;;;19.2;8.5;;;;;;;-2.59;90.92773;954.1722;;;;
2022/01/14 04:17:33;;;;;;;13.9;7;;;;;;;-2.61;90.60059;954.1328;;;;
2022/01/14 04:19:58;;;;;;;19.3;9;;;;;;;-2.69;91.0498;954.1742;;;;
2022/01/14 04:22:24;;;;;;;17.7;9.2;;;;;;;-2.59;90.47363;954.0922;;;;
2022/01/14 04:24:55;;;;;;;17.1;8;;;;;;;-2.72;90.94434;953.9565;;;;
2022/01/14 04:27:20;;;;;;;14.8;7.7;;;;;;;-2.65;90.96875;954.0774;;;;
2022/01/14 04:29:50;;;;;;;14.2;7.4;;;;;;;-2.78;91.62793;953.981;;;;
2022/01/14 04:32:15;;;;;;;11;6.1;;;;;;;-2.72;91.29883;953.9363;;;;
2022/01/14 04:34:43;;;;;;;10.2;4.8;;;;;;;-2.77;91.31934;954.0292;;;;
2022/01/14 04:37:09;;;;;;;8.1;4.6;;;;;;;-2.79;91.21582;954.0259;;;;
2022/01/14 04:39:36;;;;;;;8.5;4.6;;;;;;;-2.83;91.09375;953.9136;;;;
2022/01/14 04:42:01;;;;;;;5.9;3.7;;;;;;;-2.95;91.91113;953.9916;;;;
2022/01/14 04:44:26;;;;;;;4.8;3.4;;;;;;;-2.68;90.88379;953.9922;;;;
2022/01/14 04:47:14;;;;;;;6.3;3.7;;;;;;;-2.69;90.48535;953.9347;;;;
2022/01/14 04:49:24;;;;;;;6.6;4.3;;;;;;;-2.89;92.34277;953.8917;;;;
2022/01/14 04:51:50;;;;;;;5.6;4;;;;;;;-2.71;92.2168;953.8597;;;;
2022/01/14 04:54:18;;;;;;;5.7;3.7;;;;;;;-2.78;92.4668;953.8356;;;;
2022/01/14 04:56:49;;;;;;;6.8;3.7;;;;;;;-2.85;92.41992;953.8214;;;;
2022/01/14 04:59:18;;;;;;;7.4;3.6;;;;;;;-2.91;93.01367;953.8574;;;;
2022/01/14 05:01:43;;;;;;;4.9;3.8;;;;;;;-2.71;93.08008;953.8519;;;;
2022/01/14 05:04:10;;;;;;;6.3;3.8;;;;;;;-2.73;93.41895;953.7608;;;;
2022/01/14 05:06:35;;;;;;;7.3;4.5;;;;;;;-2.62;93.3125;953.6406;;;;
2022/01/14 05:09:16;;;;;;;7;4.2;;;;;;;-2.71;93.58984;953.7449;;;;
2022/01/14 05:11:38;;;;;;;11.1;6.3;;;;;;;-2.74;93.16309;953.7833;;;;
2022/01/14 05:13:54;;;;;;;18.3;10.2;;;;;;;-2.76;92.89355;953.7264;;;;
2022/01/14 05:16:21;;;;;;;12.6;7.4;;;;;;;-2.95;93.58105;953.7578;;;;
2022/01/14 05:18:46;;;;;;;11.1;6.7;;;;;;;-2.98;93.51758;953.7033;;;;
2022/01/14 05:21:14;;;;;;;11.7;6.2;;;;;;;-2.85;93.29199;953.608;;;;
2022/01/14 05:23:39;;;;;;;8.1;5.4;;;;;;;-2.73;93.24219;953.6325;;;;
2022/01/14 05:26:08;;;;;;;7.6;5.1;;;;;;;-2.65;93.10352;953.6117;;;;
2022/01/14 05:28:37;;;;;;;7.9;5.2;;;;;;;-2.47;92.25977;953.6209;;;;
2022/01/14 05:31:07;;;;;;;8.9;6;;;;;;;-2.52;91.9707;953.5955;;;;
2022/01/14 05:33:32;;;;;;;10.9;7;;;;;;;-2.55;92.46289;953.519;;;;
2022/01/14 05:36:00;;;;;;;10;6.1;;;;;;;-2.57;92.08301;953.5162;;;;
2022/01/14 05:38:25;;;;;;;6.9;4.6;;;;;;;-2.54;92.09961;953.455;;;;
2022/01/14 05:40:53;;;;;;;10.1;5.4;;;;;;;-2.6;92.27637;953.4655;;;;
2022/01/14 05:43:18;;;;;;;8.7;4.8;;;;;;;-2.56;92.38379;953.5099;;;;
2022/01/14 05:45:46;;;;;;;4.7;3.9;;;;;;;-2.42;93.74414;953.3272;;;;
2022/01/14 05:48:11;;;;;;;7.7;6.1;;;;;;;-2.47;93.45801;953.4311;;;;
2022/01/14 05:50:42;;;;;;;9.5;6.4;;;;;;;-2.4;92.75195;953.3317;;;;
2022/01/14 05:53:12;;;;;;;8.7;4.6;;;;;;;-2.4;92.65234;953.4711;;;;
2022/01/14 05:55:37;;;;;;;13.1;6.9;;;;;;;-2.32;92.6123;953.4041;;;;
2022/01/14 05:58:06;;;;;;;32.3;15.2;;;;;;;-2.22;92.42383;953.3645;;;;
2022/01/14 06:00:31;;;;;;;29.1;14.5;;;;;;;-2.18;92.45605;953.2817;;;;
2022/01/14 06:02:57;;;;;;;29.5;14.5;;;;;;;-2.09;91.49902;953.2887;;;;
2022/01/14 06:05:23;;;;;;;15.1;9.1;;;;;;;-2.2;91.38867;953.3684;;;;
2022/01/14 06:07:49;;;;;;;13.9;8.7;;;;;;;-2.17;90.58496;953.3299;;;;
2022/01/14 06:10:14;;;;;;;10.5;6.5;;;;;;;-2.24;91.23438;953.4012;;;;
2022/01/14 06:12:43;;;;;;;9.9;5.7;;;;;;;-2.28;91.19336;953.436;;;;
2022/01/14 06:15:08;;;;;;;15;8.8;;;;;;;-2.4;91.34473;953.4238;;;;
2022/01/14 06:17:39;;;;;;;25.5;15.3;;;;;;;-2.55;92.65137;953.399;;;;
2022/01/14 06:20:09;;;;;;;31.9;19.3;;;;;;;-2.54;92.96582;953.4019;;;;
2022/01/14 06:22:36;;;;;;;27.4;16.9;;;;;;;-2.51;92.45117;953.2921;;;;
2022/01/14 06:25:02;;;;;;;16.7;11.1;;;;;;;-2.61;93.01367;953.3723;;;;
2022/01/14 06:27:32;;;;;;;10.1;6.9;;;;;;;-2.61;93.49023;953.3806;;;;
2022/01/14 06:29:54;;;;;;;11.3;7.7;;;;;;;-2.54;93.39746;953.3286;;;;
2022/01/14 06:32:26;;;;;;;23.8;15.2;;;;;;;-2.45;93.46191;953.3095;;;;
2022/01/14 06:34:55;;;;;;;41;19;;;;;;;-2.37;93.40039;953.3198;;;;
2022/01/14 06:37:20;;;;;;;24.1;12.5;;;;;;;-2.31;93.00391;953.3064;;;;
2022/01/14 06:39:51;;;;;;;19.6;11.5;;;;;;;-2.22;92.08203;953.366;;;;
2022/01/14 06:42:18;;;;;;;16;10.1;;;;;;;-2.31;92.35059;953.3781;;;;
2022/01/14 06:44:43;;;;;;;17.5;11.2;;;;;;;-2.07;93.00293;953.4369;;;;
2022/01/14 06:47:11;;;;;;;21.2;12.5;;;;;;;-1.91;91.66406;953.3446;;;;
2022/01/14 06:49:36;;;;;;;20.9;13.1;;;;;;;-1.92;90.49512;953.4673;;;;
2022/01/14 06:52:05;;;;;;;18.2;11.9;;;;;;;-1.92;90.11816;953.489;;;;
2022/01/14 06:54:33;;;;;;;20.3;12.9;;;;;;;-1.78;88.78516;953.3894;;;;
2022/01/14 06:56:58;;;;;;;22.3;14.3;;;;;;;-1.69;87.7168;953.532;;;;
2022/01/14 06:59:24;;;;;;;27.3;16.6;;;;;;;-1.71;86.86816;953.4903;;;;
2022/01/14 07:01:49;;;;;;;22.5;14.6;;;;;;;-1.86;87.79004;953.5535;;;;
2022/01/14 07:04:19;;;;;;;25.7;15.6;;;;;;;-1.98;89.17383;953.5758;;;;
2022/01/14 07:06:45;;;;;;;26.5;17.6;;;;;;;-2.01;89.40039;953.51;;;;
2022/01/14 07:09:11;;;;;;;29.7;20.5;;;;;;;-2;89.3252;953.6142;;;;
2022/01/14 07:11:37;;;;;;;25.7;17.9;;;;;;;-2;89.64648;953.6376;;;;
2022/01/14 07:14:06;;;;;;;25.8;17;;;;;;;-1.94;88.41797;953.6394;;;;
2022/01/14 07:16:32;;;;;;;22;15.3;;;;;;;-1.97;89.04297;953.5979;;;;
2022/01/14 07:18:56;;;;;;;17.9;12.6;;;;;;;-2.05;90.11328;953.6696;;;;
2022/01/14 07:21:22;;;;;;;16.3;11;;;;;;;-2.13;90.22949;953.6505;;;;
2022/01/14 07:23:47;;;;;;;20.7;14.2;;;;;;;-2.12;90.15137;953.7288;;;;
2022/01/14 07:26:17;;;;;;;24.6;16.1;;;;;;;-1.93;89.22754;953.7084;;;;
2022/01/14 07:28:46;;;;;;;20.6;14.1;;;;;;;-2.05;89.40234;953.6669;;;;
2022/01/14 07:31:12;;;;;;;19.3;13.7;;;;;;;-1.91;88.73242;953.7944;;;;
2022/01/14 07:33:39;;;;;;;79.7;41.3;;;;;;;-2.04;90.36816;953.8369;;;;
2022/01/14 07:36:04;;;;;;;22.2;13.4;;;;;;;-2.03;93.91992;953.8075;;;;
2022/01/14 07:38:30;;;;;;;20.6;15.7;;;;;;;-1.9;92.89453;953.7904;;;;
2022/01/14 07:40:55;;;;;;;21.4;16.1;;;;;;;-1.87;92.12402;953.8002;;;;
2022/01/14 07:43:21;;;;;;;20.5;14.4;;;;;;;-1.98;91.42676;953.8073;;;;
2022/01/14 07:45:47;;;;;;;20.1;14.5;;;;;;;-1.89;92.08691;953.7861;;;;
2022/01/14 07:48:13;;;;;;;17.5;11.6;;;;;;;-1.31;91.23633;953.815;;;;
2022/01/14 07:50:38;;;;;;;12.5;9.5;;;;;;;-0.42;86.58984;953.8447;;;;
2022/01/14 07:53:06;;;;;;;11.3;8.3;;;;;;;0.47;81.41895;953.7841;;;;
2022/01/14 07:55:31;;;;;;;11.5;8.6;;;;;;;1.01;78.67773;953.7784;;;;
2022/01/14 07:57:57;;;;;;;14.8;10;;;;;;;1.75;74.41895;953.7303;;;;
2022/01/14 08:00:22;;;;;;;15.4;10.4;;;;;;;2.03;73.69434;953.7534;;;;
2022/01/14 08:02:52;;;;;;;28.5;17.9;;;;;;;2.91;69.85547;953.7286;;;;
2022/01/14 08:05:23;;;;;;;22.9;12.6;;;;;;;3.09;68.26953;953.7772;;;;
2022/01/14 08:07:51;;;;;;;18.4;12;;;;;;;2.94;68.6709;953.7472;;;;
2022/01/14 08:10:13;;;;;;;21.8;14.2;;;;;;;3.67;65.99121;953.7665;;;;
2022/01/14 08:12:43;;;;;;;21.3;14.5;;;;;;;4.2;64.17188;953.7332;;;;
2022/01/14 08:15:14;;;;;;;15.9;11.1;;;;;;;5.33;60.91309;953.7236;;;;
2022/01/14 08:17:39;;;;;;;14.4;10.7;;;;;;;5.82;58.93848;953.7244;;;;
2022/01/14 08:20:09;;;;;;;13.3;9.8;;;;;;;7.11;55.09375;953.671;;;;
2022/01/14 08:22:37;;;;;;;14;10.1;;;;;;;8.08;52.21191;953.7112;;;;
2022/01/14 08:25:02;;;;;;;11.3;8.9;;;;;;;9.32;48.37598;953.738;;;;
2022/01/14 08:27:29;;;;;;;11.1;8.7;;;;;;;10.55;45.53516;953.7859;;;;
2022/01/14 08:29:54;;;;;;;11.2;8.8;;;;;;;10.9;44.2793;953.788;;;;
2022/01/14 08:32:25;;;;;;;14.9;7.9;;;;;;;9.94;45.72168;953.7313;;;;
2022/01/14 08:34:53;;;;;;;15.6;9.7;;;;;;;9.52;46.67871;953.6536;;;;
2022/01/14 08:37:18;;;;;;;23.8;15.1;;;;;;;9.5;47.05371;953.7144;;;;
2022/01/14 08:39:48;;;;;;;20.8;14;;;;;;;10.38;45.18555;953.7375;;;;
2022/01/14 08:42:13;;;;;;;15;9.9;;;;;;;11.42;42.65234;953.6342;;;;
2022/01/14 08:44:42;;;;;;;16.9;10.9;;;;;;;11.79;41.7373;953.6816;;;;
2022/01/14 08:47:09;;;;;;;17.8;11.5;;;;;;;11.05;43.3584;953.7078;;;;
2022/01/14 08:49:36;;;;;;;15.2;9.9;;;;;;;10.21;45.29297;953.6071;;;;
2022/01/14 08:52:01;;;;;;;18.1;10.1;;;;;;;10.94;44.02148;953.6895;;;;
2022/01/14 08:54:28;;;;;;;14.3;9;;;;;;;10.03;45.82227;953.6663;;;;
2022/01/14 08:56:53;;;;;;;14.7;8.9;;;;;;;8.89;48.54492;953.6609;;;;
2022/01/14 08:59:19;;;;;;;14.5;8.2;;;;;;;7.32;53.07031;953.6336;;;;
2022/01/14 09:01:44;;;;;;;15.6;9.1;;;;;;;6.37;56.40234;953.7061;;;;
2022/01/14 09:04:16;;;;;;;17.4;10.2;;;;;;;5.42;59.96582;953.7036;;;;
2022/01/14 09:06:41;;;;;;;16.8;11.6;;;;;;;4.42;64.1377;953.694;;;;
2022/01/14 09:09:09;;;;;;;17.5;10.6;;;;;;;3.59;68.05664;953.7274;;;;
2022/01/14 09:11:34;;;;;;;17.5;9.9;;;;;;;3.14;70.64551;953.6657;;;;
2022/01/14 09:14:03;;;;;;;19.8;9.8;;;;;;;2.77;73.30762;953.6592;;;;
2022/01/14 09:16:32;;;;;;;19.8;10.3;;;;;;;2.41;75.37402;953.6941;;;;
2022/01/14 09:19:04;;;;;;;13;7.8;;;;;;;2.32;76.31152;953.6652;;;;
2022/01/14 09:21:32;;;;;;;11.4;6.6;;;;;;;2.21;76.98438;953.6953;;;;
2022/01/14 09:24:05;;;;;;;10.6;6.4;;;;;;;2.01;78.30273;953.6577;;;;
2022/01/14 09:26:27;;;;;;;11.1;6.4;;;;;;;2.1;78.55469;953.5676;;;;
2022/01/14 09:29:03;;;;;;;13.9;7.1;;;;;;;2.18;78.50195;953.6153;;;;
2022/01/14 09:31:34;;;;;;;10.7;7.4;;;;;;;2.4;77.87207;953.5748;;;;
2022/01/14 09:34:04;;;;;;;7;4.6;;;;;;;2.64;77.29688;953.5146;;;;
2022/01/14 09:36:29;;;;;;;7.3;4.4;;;;;;;2.69;76.95898;953.5203;;;;
2022/01/14 09:38:56;;;;;;;12.3;7.6;;;;;;;2.7;77.00586;953.5489;;;;
2022/01/14 09:41:21;;;;;;;13;7.7;;;;;;;2.87;76.29688;953.5623;;;;
2022/01/14 09:43:51;;;;;;;9.4;4.8;;;;;;;3.07;75.98438;953.6082;;;;
2022/01/14 09:46:16;;;;;;;6.8;4.8;;;;;;;3.22;75.04688;953.5983;;;;
2022/01/14 09:48:43;;;;;;;9.7;6.6;;;;;;;3.14;75.02246;953.616;;;;
2022/01/14 09:51:11;;;;;;;14.3;8.3;;;;;;;3.15;75.21387;953.5958;;;;
2022/01/14 09:53:34;;;;;;;10;5.5;;;;;;;3.17;73.9834;953.6603;;;;
2022/01/14 09:56:01;;;;;;;7.9;5.7;;;;;;;3.26;74.22266;953.5983;;;;
2022/01/14 09:58:27;;;;;;;9.5;5.6;;;;;;;3.25;74.61328;953.5923;;;;
2022/01/14 10:00:54;;;;;;;9.1;5.8;;;;;;;3.39;74.91797;953.5572;;;;
2022/01/14 10:03:19;;;;;;;9.3;5.6;;;;;;;3.55;74.10449;953.568;;;;
2022/01/14 10:05:44;;;;;;;14.8;8.6;;;;;;;3.67;73.5752;953.5466;;;;
2022/01/14 10:08:09;;;;;;;17.3;9.7;;;;;;;3.89;72.99609;953.5271;;;;
2022/01/14 10:10:36;;;;;;;7.9;5.6;;;;;;;4.01;72.20703;953.4437;;;;
2022/01/14 10:13:00;;;;;;;6.7;4.9;;;;;;;4;72.29492;953.4713;;;;
2022/01/14 10:15:30;;;;;;;7.4;4.5;;;;;;;4.01;72.80273;953.383;;;;
2022/01/14 10:17:56;;;;;;;4.6;3.6;;;;;;;4.21;72.08301;953.3499;;;;
2022/01/14 10:20:23;;;;;;;6.6;4.9;;;;;;;4.24;71.79492;953.3081;;;;
2022/01/14 10:22:54;;;;;;;7.4;5;;;;;;;4.41;71.10352;953.2849;;;;
2022/01/14 10:25:25;;;;;;;4.5;3.4;;;;;;;4.53;70.70801;953.2889;;;;
2022/01/14 10:27:50;;;;;;;9;5.4;;;;;;;4.81;70.03027;953.2234;;;;
2022/01/14 10:30:20;;;;;;;6.3;4.4;;;;;;;4.89;69.6748;953.188;;;;
2022/01/14 10:32:45;;;;;;;3.6;3.1;;;;;;;4.97;68.95508;953.163;;;;
2022/01/14 10:35:16;;;;;;;7.5;5;;;;;;;4.95;68.48926;953.1761;;;;
2022/01/14 10:37:42;;;;;;;6.8;4.2;;;;;;;5.01;68.49805;953.1456;;;;
2022/01/14 10:40:07;;;;;;;7.6;4;;;;;;;5;65.9502;953.0731;;;;
2022/01/14 13:24:30;;;;;;;6;4;;;;;;;8.64;58.58887;951.8486;;;;
2022/01/14 13:27:01;;;;;;;2.8;1.9;;;;;;;8.85;58.49219;951.8934;;;;
2022/01/14 13:29:37;;;;;;;3;1.8;;;;;;;8.65;58.4873;951.8409;;;;
2022/01/14 13:32:09;;;;;;;2.4;1.9;;;;;;;8.5;58.40918;951.9308;;;;
2022/01/14 13:34:39;;;;;;;2.5;1.7;;;;;;;8.46;59.21191;951.9533;;;;
2022/01/14 13:37:07;;;;;;;2.5;1.5;;;;;;;8.73;59.24805;951.9411;;;;
2022/01/14 13:39:33;;;;;;;1.9;1.6;;;;;;;9.01;59.16211;951.9824;;;;
2022/01/14 13:41:57;;;;;;;2.5;1.9;;;;;;;9.27;58.21875;951.88;;;;
2022/01/14 13:44:32;;;;;;;3;2;;;;;;;9.43;55.53125;951.8855;;;;
2022/01/14 13:46:56;;;;;;;2.6;1.6;;;;;;;9.09;56.24707;951.9669;;;;
2022/01/14 13:49:21;;;;;;;1.4;1.3;;;;;;;9.34;55.93848;951.9508;;;;
2022/01/14 13:51:43;;;;;;;1.8;1.4;;;;;;;9.78;54.57227;951.9503;;;;
2022/01/14 13:54:10;;;;;;;3.2;1.5;;;;;;;10.51;54.27637;951.9449;;;;
2022/01/14 13:56:38;;;;;;;8.8;5.2;;;;;;;11.81;52.6416;951.8582;;;;
2022/01/14 13:59:04;;;;;;;7;4.5;;;;;;;13.24;48.64355;951.8351;;;;
2022/01/14 14:01:30;;;;;;;4.3;2.8;;;;;;;15.04;42.59277;951.7863;;;;
2022/01/14 14:04:02;;;;;;;4.7;2.2;;;;;;;17.22;38.00488;951.7435;;;;
2022/01/14 14:06:27;;;;;;;2.1;1.6;;;;;;;19.1;34.26758;951.7255;;;;
2022/01/14 14:08:56;;;;;;;1.7;1.5;;;;;;;20.69;31.06055;951.6049;;;;
2022/01/14 14:16:06;;;;;;;5.5;4.1;;;;;;;22.12;30.66797;951.5876;;;;
2022/01/14 14:18:32;;;;;;;2.3;2;;;;;;;19.31;34.30664;951.6534;;;;
2022/01/14 14:20:57;;;;;;;5.4;3.6;;;;;;;17.04;38.2334;951.6322;;;;
2022/01/14 14:23:27;;;;;;;6.5;3.5;;;;;;;14.87;41.99902;951.7025;;;;
2022/01/14 14:25:59;;;;;;;6.1;3.6;;;;;;;12.06;48.48926;951.6972;;;;
2022/01/14 14:28:19;;;;;;;5.2;3.7;;;;;;;10.39;54.48926;951.7536;;;;
2022/01/14 14:30:46;;;;;;;5.5;3.4;;;;;;;10.73;54.63477;951.7583;;;;
2022/01/14 14:33:12;;;;;;;6.2;4.5;;;;;;;12.01;51.0166;951.6884;;;;
2022/01/14 14:35:37;;;;;;;7.4;4.7;;;;;;;13.06;47.82031;951.71;;;;
2022/01/14 14:38:05;;;;;;;8.7;5.5;;;;;;;13.62;46.44336;951.8018;;;;
2022/01/14 14:40:32;;;;;;;14.8;11.6;;;;;;;14.03;44.60059;951.7836;;;;
2022/01/14 14:42:59;;;;;;;12.9;10.3;;;;;;;13.23;46.59863;951.8134;;;;
2022/01/14 14:45:23;;;;;;;11.7;7.9;;;;;;;12.39;48.66406;951.7967;;;;
2022/01/14 14:47:50;;;;;;;12.9;9.1;;;;;;;12.67;48.64941;951.7943;;;;
2022/01/14 14:50:16;;;;;;;12.6;7.5;;;;;;;12.85;48.00391;951.7932;;;;
2022/01/14 14:52:44;;;;;;;11.3;7.2;;;;;;;12.72;47.87598;951.7882;;;;
2022/01/14 14:55:11;;;;;;;20.4;12.2;;;;;;;11.7;50.46387;951.805;;;;
2022/01/14 14:57:39;;;;;;;66.9;39.2;;;;;;;10.93;52.6377;951.8315;;;;
2022/01/14 15:00:04;;;;;;;32.4;19;;;;;;;10.37;54.24707;951.7633;;;;
2022/01/14 15:02:32;;;;;;;131.2;80.6;;;;;;;9.43;57.8877;951.8455;;;;
2022/01/14 15:04:58;;;;;;;26.1;18.2;;;;;;;8.37;61.53906;951.7922;;;;
2022/01/14 15:07:27;;;;;;;22.8;16.5;;;;;;;7.58;64.95313;951.8344;;;;
2022/01/14 15:09:53;;;;;;;24.4;16.3;;;;;;;7.31;66.16992;951.8044;;;;
2022/01/14 15:12:17;;;;;;;25.1;17.8;;;;;;;7.12;66.92285;951.7477;;;;
2022/01/14 15:14:46;;;;;;;24.1;16.8;;;;;;;7.03;67.64453;951.7388;;;;
2022/01/14 15:18:10;;;;;;;21;14.3;;;;;;;6.9;68.34766;951.7604;;;;
2022/01/14 15:19:38;;;;;;;20.5;12.1;;;;;;;6.31;70.84277;951.7745;;;;
2022/01/14 15:22:07;;;;;;;21.1;13;;;;;;;6.04;72.40234;951.7548;;;;
2022/01/14 15:24:32;;;;;;;24.3;14.6;;;;;;;5.98;72.6875;951.6522;;;;
2022/01/14 15:26:57;;;;;;;26.9;16;;;;;;;5.93;73.00586;951.7104;;;;
2022/01/14 15:29:27;;;;;;;26.4;17.1;;;;;;;5.7;73.71191;951.68;;;;
2022/01/14 15:31:52;;;;;;;25.6;18.1;;;;;;;5.58;74.42578;951.6414;;;;
2022/01/14 15:34:19;;;;;;;28.6;18;;;;;;;5.47;74.77734;951.6153;;;;
2022/01/14 15:36:50;;;;;;;33.1;19.5;;;;;;;5.31;75.37109;951.572;;;;
2022/01/14 15:39:10;;;;;;;31.8;17.9;;;;;;;5.18;76.19336;951.5114;;;;
2022/01/14 15:41:39;;;;;;;24.1;15.6;;;;;;;4.96;77.16895;951.5403;;;;
2022/01/14 15:44:09;;;;;;;29.6;17.4;;;;;;;5.02;76.65039;951.5991;;;;
2022/01/14 15:46:33;;;;;;;24.7;14.4;;;;;;;5.05;76.7793;951.5072;;;;
2022/01/14 15:49:00;;;;;;;25.7;16.9;;;;;;;5;76.4873;951.5825;;;;
2022/01/14 15:51:26;;;;;;;37.6;21.4;;;;;;;4.98;76.5293;951.5821;;;;
2022/01/14 15:53:54;;;;;;;30.8;18.1;;;;;;;4.66;77.7002;951.5653;;;;
2022/01/14 15:56:19;;;;;;;30.4;16.3;;;;;;;4.57;77.89844;951.5403;;;;
2022/01/14 15:58:46;;;;;;;32.8;18;;;;;;;4.37;78.89746;951.4666;;;;
2022/01/14 16:01:12;;;;;;;19.8;12.5;;;;;;;4.35;79.20703;951.4479;;;;
2022/01/14 16:03:38;;;;;;;18.8;12.1;;;;;;;4.38;78.83105;951.4576;;;;
2022/01/14 16:06:03;;;;;;;17.2;10.4;;;;;;;4.31;79.12207;951.5041;;;;
2022/01/14 16:08:32;;;;;;;15.6;9.9;;;;;;;4.28;78.82422;951.5264;;;;
2022/01/14 16:10:58;;;;;;;61.9;31.8;;;;;;;4.43;78.44531;951.4204;;;;
2022/01/14 16:13:24;;;;;;;35.7;17.6;;;;;;;4.22;79.57813;951.5562;;;;
2022/01/14 16:15:52;;;;;;;25.5;14;;;;;;;4;80.68262;951.5354;;;;
2022/01/14 16:18:21;;;;;;;42.1;18.2;;;;;;;3.72;81.78711;951.5242;;;;
2022/01/14 16:20:51;;;;;;;24.2;13.7;;;;;;;3.69;82.22949;951.5327;;;;
2022/01/14 16:23:18;;;;;;;20;12.9;;;;;;;3.78;82.08008;951.5248;;;;
2022/01/14 16:25:46;;;;;;;28;16;;;;;;;3.85;81.42871;951.497;;;;
2022/01/14 16:28:12;;;;;;;36.1;17.8;;;;;;;3.78;81.47266;951.5223;;;;
2022/01/14 16:30:39;;;;;;;27.9;15.5;;;;;;;3.78;81.125;951.5529;;;;
2022/01/14 16:33:06;;;;;;;29.6;16.1;;;;;;;3.67;81.9248;951.4946;;;;
2022/01/14 16:35:33;;;;;;;175.2;80.3;;;;;;;3.72;81.46289;951.5236;;;;
2022/01/14 16:37:58;;;;;;;39.9;20.1;;;;;;;3.63;81.6123;951.4113;;;;
2022/01/14 16:40:24;;;;;;;43.3;23.4;;;;;;;3.59;82.02148;951.593;;;;
2022/01/14 16:42:52;;;;;;;42.4;24.3;;;;;;;3.49;82.10254;951.5387;;;;
2022/01/14 16:45:14;;;;;;;35.7;22.1;;;;;;;3.24;83.06445;951.5662;;;;
2022/01/14 16:47:44;;;;;;;31.5;20.7;;;;;;;3.18;83.30078;951.5139;;;;
2022/01/14 16:50:06;;;;;;;30.7;20.7;;;;;;;2.89;84.58984;951.5539;;;;
2022/01/14 16:52:33;;;;;;;139.8;84.5;;;;;;;2.82;85.10059;951.5392;;;;
2022/01/14 16:54:59;;;;;;;354;195.3;;;;;;;2.96;84.52441;951.5005;;;;
2022/01/14 16:57:26;;;;;;;300.3;155.3;;;;;;;3.04;83.74512;951.5238;;;;
2022/01/14 16:59:53;;;;;;;33.8;22.2;;;;;;;3.17;83.88281;951.4487;;;;
2022/01/14 17:02:21;;;;;;;27.7;17.1;;;;;;;3.02;84.16602;951.4291;;;;
2022/01/14 17:04:47;;;;;;;34.4;21.7;;;;;;;2.84;85.08398;951.3787;;;;
2022/01/14 17:07:12;;;;;;;52.5;30.3;;;;;;;2.78;85.16113;951.3172;;;;
2022/01/14 17:09:38;;;;;;;56.5;32.1;;;;;;;2.61;85.50781;951.3164;;;;
2022/01/14 17:12:04;;;;;;;51.5;31.1;;;;;;;2.54;85.95215;951.3246;;;;
2022/01/14 17:14:31;;;;;;;45.7;28.2;;;;;;;2.61;85.83398;951.2905;;;;
2022/01/14 17:16:57;;;;;;;99.9;54;;;;;;;2.71;85.60742;951.2654;;;;
2022/01/14 17:19:22;;;;;;;57.3;35.5;;;;;;;2.85;84.85059;951.2676;;;;
2022/01/14 17:21:49;;;;;;;34.9;22.6;;;;;;;2.91;84.41406;951.2159;;;;
2022/01/14 17:24:14;;;;;;;42.2;25.9;;;;;;;2.92;84.03418;951.2341;;;;
2022/01/14 17:26:42;;;;;;;36.9;25.2;;;;;;;2.88;82.93945;951.1986;;;;
2022/01/14 17:29:07;;;;;;;42;28.2;;;;;;;3;82.94922;951.1683;;;;
2022/01/14 17:31:34;;;;;;;37.9;24.2;;;;;;;3.03;83.41797;951.1512;;;;
2022/01/14 17:34:00;;;;;;;32.8;20.8;;;;;;;3.05;83.7793;951.1967;;;;
2022/01/14 17:36:26;;;;;;;42.8;27.1;;;;;;;3;83.46582;951.2511;;;;
2022/01/14 17:38:51;;;;;;;41;26.7;;;;;;;2.85;83.44629;951.2202;;;;
2022/01/14 17:41:17;;;;;;;37.9;25;;;;;;;2.67;83.64648;951.1738;;;;
2022/01/14 17:43:45;;;;;;;46.8;30;;;;;;;2.52;84.44727;951.2023;;;;
2022/01/14 17:46:11;;;;;;;90.4;51.1;;;;;;;2.39;85.7998;951.1997;;;;
2022/01/14 17:48:36;;;;;;;74;43.8;;;;;;;2.46;86.02734;951.2389;;;;
2022/01/14 17:51:03;;;;;;;51.6;32.2;;;;;;;2.54;85.83105;951.2369;;;;
2022/01/14 17:53:28;;;;;;;49.9;32.4;;;;;;;2.69;84.16797;951.1989;;;;
2022/01/14 17:55:54;;;;;;;41.9;26.8;;;;;;;2.51;84.16504;951.2621;;;;
2022/01/14 17:58:22;;;;;;;34.7;20.6;;;;;;;2.39;84.54492;951.2547;;;;
2022/01/14 18:00:47;;;;;;;40.5;25.5;;;;;;;2.22;85.10449;951.2122;;;;
2022/01/14 18:03:13;;;;;;;44.2;28.7;;;;;;;2.01;86.0459;951.2772;;;;
2022/01/14 18:05:38;;;;;;;154.5;78.4;;;;;;;1.88;88.05664;951.1501;;;;
2022/01/14 18:08:06;;;;;;;52.3;31.7;;;;;;;2.06;86.93164;951.2392;;;;
2022/01/14 18:10:32;;;;;;;63.6;35.1;;;;;;;2.07;86.59766;951.2153;;;;
2022/01/14 18:13:12;;;;;;;57.4;33.5;;;;;;;1.94;87.12988;951.2461;;;;
2022/01/14 18:15:31;;;;;;;267.1;165.4;;;;;;;1.98;86.5127;951.2316;;;;
2022/01/14 18:17:56;;;;;;;73.7;45.5;;;;;;;2.1;85.6748;951.2672;;;;
2022/01/14 18:20:27;;;;;;;85.2;49;;;;;;;2.23;85.72266;951.2598;;;;
2022/01/14 18:22:52;;;;;;;65.7;37.9;;;;;;;2.26;85.89746;951.303;;;;
2022/01/14 18:25:22;;;;;;;56.1;32.5;;;;;;;2.33;85.20703;951.3362;;;;